sensor_id;sensor_type;location;lat;lon;timestamp;temperature;humidity
7290;DHT22;63176;52.678;13.250;2023-05-07T00:01:43;9.90;69.50
7290;DHT22;63176;52.678;13.250;2023-05-07T00:04:09;9.90;70.10
7290;DHT22;63176;52.678;13.250;2023-05-07T00:06:35;9.80;69.70
7290;DHT22;63176;52.678;13.250;2023-05-07T00:09:01;9.90;70.20
7290;DHT22;63176;52.678;13.250;2023-05-07T00:11:28;9.90;72.40
7290;DHT22;63176;52.678;13.250;2023-05-07T00:13:53;9.90;70.70
7290;DHT22;63176;52.678;13.250;2023-05-07T00:16:19;9.90;70.40
7290;DHT22;63176;52.678;13.250;2023-05-07T00:18:45;9.90;70.20
7290;DHT22;63176;52.678;13.250;2023-05-07T00:21:11;9.90;70.70
7290;DHT22;63176;52.678;13.250;2023-05-07T00:23:37;9.90;69.70
7290;DHT22;63176;52.678;13.250;2023-05-07T00:26:03;9.90;71.10
7290;DHT22;63176;52.678;13.250;2023-05-07T00:28:29;9.90;70.80
7290;DHT22;63176;52.678;13.250;2023-05-07T00:30:55;9.90;70.90
7290;DHT22;63176;52.678;13.250;2023-05-07T00:33:20;9.90;70.00
7290;DHT22;63176;52.678;13.250;2023-05-07T00:35:47;9.90;72.30
7290;DHT22;63176;52.678;13.250;2023-05-07T00:38:13;9.90;70.10
7290;DHT22;63176;52.678;13.250;2023-05-07T00:40:39;9.90;70.80
7290;DHT22;63176;52.678;13.250;2023-05-07T00:43:05;9.90;71.40
7290;DHT22;63176;52.678;13.250;2023-05-07T00:45:30;9.90;91.10
7290;DHT22;63176;52.678;13.250;2023-05-07T00:47:59;9.90;70.80
7290;DHT22;63176;52.678;13.250;2023-05-07T00:50:28;9.90;69.40
7290;DHT22;63176;52.678;13.250;2023-05-07T00:52:55;9.90;69.20
7290;DHT22;63176;52.678;13.250;2023-05-07T00:55:22;9.80;69.60
7290;DHT22;63176;52.678;13.250;2023-05-07T00:57:49;9.80;69.30
7290;DHT22;63176;52.678;13.250;2023-05-07T01:00:16;9.90;68.50
7290;DHT22;63176;52.678;13.250;2023-05-07T01:02:42;9.80;70.30
7290;DHT22;63176;52.678;13.250;2023-05-07T01:05:11;9.90;69.50
7290;DHT22;63176;52.678;13.250;2023-05-07T01:07:39;9.80;70.70
7290;DHT22;63176;52.678;13.250;2023-05-07T01:10:06;9.80;69.40
7290;DHT22;63176;52.678;13.250;2023-05-07T01:12:33;9.80;69.50
7290;DHT22;63176;52.678;13.250;2023-05-07T01:15:00;9.80;70.20
7290;DHT22;63176;52.678;13.250;2023-05-07T01:17:26;9.80;69.70
7290;DHT22;63176;52.678;13.250;2023-05-07T01:19:52;9.80;90.50
7290;DHT22;63176;52.678;13.250;2023-05-07T01:22:31;9.80;72.20
7290;DHT22;63176;52.678;13.250;2023-05-07T01:24:58;9.80;72.00
7290;DHT22;63176;52.678;13.250;2023-05-07T01:27:25;9.80;72.00
7290;DHT22;63176;52.678;13.250;2023-05-07T01:29:51;9.80;72.10
7290;DHT22;63176;52.678;13.250;2023-05-07T01:32:21;9.90;72.50
7290;DHT22;63176;52.678;13.250;2023-05-07T01:34:48;9.80;72.30
7290;DHT22;63176;52.678;13.250;2023-05-07T01:37:16;9.80;73.80
7290;DHT22;63176;52.678;13.250;2023-05-07T01:39:42;9.80;72.90
7290;DHT22;63176;52.678;13.250;2023-05-07T01:42:08;9.80;72.10
7290;DHT22;63176;52.678;13.250;2023-05-07T01:44:34;9.80;72.60
7290;DHT22;63176;52.678;13.250;2023-05-07T01:47:00;9.80;71.90
7290;DHT22;63176;52.678;13.250;2023-05-07T01:49:26;9.80;71.70
7290;DHT22;63176;52.678;13.250;2023-05-07T01:51:52;9.80;73.40
7290;DHT22;63176;52.678;13.250;2023-05-07T01:54:18;9.80;71.20
7290;DHT22;63176;52.678;13.250;2023-05-07T01:56:44;9.80;71.60
7290;DHT22;63176;52.678;13.250;2023-05-07T01:59:10;9.80;70.40
7290;DHT22;63176;52.678;13.250;2023-05-07T02:01:35;9.80;69.30
7290;DHT22;63176;52.678;13.250;2023-05-07T02:04:01;9.80;70.50
7290;DHT22;63176;52.678;13.250;2023-05-07T02:06:27;9.70;67.20
7290;DHT22;63176;52.678;13.250;2023-05-07T02:08:52;9.70;67.00
7290;DHT22;63176;52.678;13.250;2023-05-07T02:11:18;9.70;66.20
7290;DHT22;63176;52.678;13.250;2023-05-07T02:13:44;9.70;64.20
7290;DHT22;63176;52.678;13.250;2023-05-07T02:16:10;9.70;65.30
7290;DHT22;63176;52.678;13.250;2023-05-07T02:18:36;9.70;67.70
7290;DHT22;63176;52.678;13.250;2023-05-07T02:21:01;9.70;65.90
7290;DHT22;63176;52.678;13.250;2023-05-07T02:23:27;9.70;66.10
7290;DHT22;63176;52.678;13.250;2023-05-07T02:25:53;9.80;65.50
7290;DHT22;63176;52.678;13.250;2023-05-07T02:28:18;9.80;64.60
7290;DHT22;63176;52.678;13.250;2023-05-07T02:30:44;9.80;64.40
7290;DHT22;63176;52.678;13.250;2023-05-07T02:33:13;9.80;65.10
7290;DHT22;63176;52.678;13.250;2023-05-07T02:35:39;9.80;65.60
7290;DHT22;63176;52.678;13.250;2023-05-07T02:38:05;9.80;66.20
7290;DHT22;63176;52.678;13.250;2023-05-07T02:40:30;9.70;65.20
7290;DHT22;63176;52.678;13.250;2023-05-07T02:42:59;9.80;65.30
7290;DHT22;63176;52.678;13.250;2023-05-07T02:45:25;9.80;65.70
7290;DHT22;63176;52.678;13.250;2023-05-07T02:47:50;9.70;65.60
7290;DHT22;63176;52.678;13.250;2023-05-07T02:50:16;9.80;65.10
7290;DHT22;63176;52.678;13.250;2023-05-07T02:52:42;9.70;63.30
7290;DHT22;63176;52.678;13.250;2023-05-07T02:55:08;9.70;63.00
7290;DHT22;63176;52.678;13.250;2023-05-07T02:57:34;9.70;62.90
7290;DHT22;63176;52.678;13.250;2023-05-07T02:59:59;9.70;62.70
7290;DHT22;63176;52.678;13.250;2023-05-07T03:02:35;9.70;61.60
7290;DHT22;63176;52.678;13.250;2023-05-07T03:05:00;9.70;60.90
7290;DHT22;63176;52.678;13.250;2023-05-07T03:07:27;9.70;59.60
7290;DHT22;63176;52.678;13.250;2023-05-07T03:09:52;9.70;59.10
7290;DHT22;63176;52.678;13.250;2023-05-07T03:12:19;9.70;60.40
7290;DHT22;63176;52.678;13.250;2023-05-07T03:14:44;9.70;59.60
7290;DHT22;63176;52.678;13.250;2023-05-07T03:17:10;9.70;60.50
7290;DHT22;63176;52.678;13.250;2023-05-07T03:19:36;9.70;60.10
7290;DHT22;63176;52.678;13.250;2023-05-07T03:22:01;9.70;60.20
7290;DHT22;63176;52.678;13.250;2023-05-07T03:24:27;9.70;59.80
7290;DHT22;63176;52.678;13.250;2023-05-07T03:26:53;9.70;59.50
7290;DHT22;63176;52.678;13.250;2023-05-07T03:29:18;9.70;59.00
7290;DHT22;63176;52.678;13.250;2023-05-07T03:31:45;9.70;59.80
7290;DHT22;63176;52.678;13.250;2023-05-07T03:34:10;9.70;59.20
7290;DHT22;63176;52.678;13.250;2023-05-07T03:36:36;9.70;59.70
7290;DHT22;63176;52.678;13.250;2023-05-07T03:39:02;9.70;59.10
7290;DHT22;63176;52.678;13.250;2023-05-07T03:41:27;9.70;60.20
7290;DHT22;63176;52.678;13.250;2023-05-07T03:43:54;9.70;58.10
7290;DHT22;63176;52.678;13.250;2023-05-07T03:46:20;9.70;58.20
7290;DHT22;63176;52.678;13.250;2023-05-07T03:48:46;9.70;58.80
7290;DHT22;63176;52.678;13.250;2023-05-07T03:51:12;9.70;59.60
7290;DHT22;63176;52.678;13.250;2023-05-07T03:53:37;9.70;58.10
7290;DHT22;63176;52.678;13.250;2023-05-07T03:56:03;9.70;59.00
7290;DHT22;63176;52.678;13.250;2023-05-07T03:58:29;9.70;58.70
7290;DHT22;63176;52.678;13.250;2023-05-07T04:00:55;9.70;58.50
7290;DHT22;63176;52.678;13.250;2023-05-07T04:03:20;9.70;58.10
7290;DHT22;63176;52.678;13.250;2023-05-07T04:05:46;9.70;57.80
7290;DHT22;63176;52.678;13.250;2023-05-07T04:08:12;9.70;78.30
7290;DHT22;63176;52.678;13.250;2023-05-07T04:10:38;9.70;59.30
7290;DHT22;63176;52.678;13.250;2023-05-07T04:13:03;9.70;57.90
7290;DHT22;63176;52.678;13.250;2023-05-07T04:15:29;9.70;58.10
7290;DHT22;63176;52.678;13.250;2023-05-07T04:17:55;9.70;58.60
7290;DHT22;63176;52.678;13.250;2023-05-07T04:20:20;9.70;58.40
7290;DHT22;63176;52.678;13.250;2023-05-07T04:22:46;9.70;58.60
7290;DHT22;63176;52.678;13.250;2023-05-07T04:25:11;9.70;59.60
7290;DHT22;63176;52.678;13.250;2023-05-07T04:27:37;9.70;58.80
7290;DHT22;63176;52.678;13.250;2023-05-07T04:30:03;9.70;58.70
7290;DHT22;63176;52.678;13.250;2023-05-07T04:32:30;9.70;58.40
7290;DHT22;63176;52.678;13.250;2023-05-07T04:34:56;9.80;59.00
7290;DHT22;63176;52.678;13.250;2023-05-07T04:37:22;9.80;58.70
7290;DHT22;63176;52.678;13.250;2023-05-07T04:39:48;9.80;58.70
7290;DHT22;63176;52.678;13.250;2023-05-07T04:42:17;9.80;58.30
7290;DHT22;63176;52.678;13.250;2023-05-07T04:44:44;9.80;58.10
7290;DHT22;63176;52.678;13.250;2023-05-07T04:47:10;9.80;57.70
7290;DHT22;63176;52.678;13.250;2023-05-07T04:49:37;9.80;56.70
7290;DHT22;63176;52.678;13.250;2023-05-07T04:52:04;9.90;58.50
7290;DHT22;63176;52.678;13.250;2023-05-07T04:54:29;9.80;56.50
7290;DHT22;63176;52.678;13.250;2023-05-07T04:56:55;9.80;56.90
7290;DHT22;63176;52.678;13.250;2023-05-07T04:59:21;9.90;57.20
7290;DHT22;63176;52.678;13.250;2023-05-07T05:01:47;9.90;56.20
7290;DHT22;63176;52.678;13.250;2023-05-07T05:04:12;9.90;57.10
7290;DHT22;63176;52.678;13.250;2023-05-07T05:06:39;9.90;55.70
7290;DHT22;63176;52.678;13.250;2023-05-07T05:09:04;9.90;54.70
7290;DHT22;63176;52.678;13.250;2023-05-07T05:11:31;9.90;55.40
7290;DHT22;63176;52.678;13.250;2023-05-07T05:13:58;9.80;54.10
7290;DHT22;63176;52.678;13.250;2023-05-07T05:16:24;9.90;54.20
7290;DHT22;63176;52.678;13.250;2023-05-07T05:18:50;9.90;55.60
7290;DHT22;63176;52.678;13.250;2023-05-07T05:21:17;9.90;54.30
7290;DHT22;63176;52.678;13.250;2023-05-07T05:23:43;9.90;54.40
7290;DHT22;63176;52.678;13.250;2023-05-07T05:26:09;9.90;54.20
7290;DHT22;63176;52.678;13.250;2023-05-07T05:28:34;9.90;55.40
7290;DHT22;63176;52.678;13.250;2023-05-07T05:31:00;9.90;56.10
7290;DHT22;63176;52.678;13.250;2023-05-07T05:33:26;9.90;53.30
7290;DHT22;63176;52.678;13.250;2023-05-07T05:35:53;9.90;52.50
7290;DHT22;63176;52.678;13.250;2023-05-07T05:38:18;9.90;51.30
7290;DHT22;63176;52.678;13.250;2023-05-07T05:40:44;9.90;51.50
7290;DHT22;63176;52.678;13.250;2023-05-07T05:43:10;10.00;51.10
7290;DHT22;63176;52.678;13.250;2023-05-07T05:45:36;10.00;51.10
7290;DHT22;63176;52.678;13.250;2023-05-07T05:48:01;10.00;51.80
7290;DHT22;63176;52.678;13.250;2023-05-07T05:50:27;10.00;51.20
7290;DHT22;63176;52.678;13.250;2023-05-07T05:52:53;10.20;53.80
7290;DHT22;63176;52.678;13.250;2023-05-07T05:55:19;10.30;55.60
7290;DHT22;63176;52.678;13.250;2023-05-07T05:57:45;10.40;55.80
7290;DHT22;63176;52.678;13.250;2023-05-07T06:00:11;10.50;54.80
7290;DHT22;63176;52.678;13.250;2023-05-07T06:02:37;10.60;53.00
7290;DHT22;63176;52.678;13.250;2023-05-07T06:05:03;10.60;52.70
7290;DHT22;63176;52.678;13.250;2023-05-07T06:07:29;10.60;51.60
7290;DHT22;63176;52.678;13.250;2023-05-07T06:09:55;10.70;57.80
7290;DHT22;63176;52.678;13.250;2023-05-07T06:12:21;10.80;54.00
7290;DHT22;63176;52.678;13.250;2023-05-07T06:14:46;10.70;53.50
7290;DHT22;63176;52.678;13.250;2023-05-07T06:17:12;10.80;53.60
7290;DHT22;63176;52.678;13.250;2023-05-07T06:19:38;10.80;51.30
7290;DHT22;63176;52.678;13.250;2023-05-07T06:22:04;10.80;51.90
7290;DHT22;63176;52.678;13.250;2023-05-07T06:24:29;10.80;52.30
7290;DHT22;63176;52.678;13.250;2023-05-07T06:26:55;10.90;51.70
7290;DHT22;63176;52.678;13.250;2023-05-07T06:29:21;10.80;50.90
7290;DHT22;63176;52.678;13.250;2023-05-07T06:31:46;10.80;50.40
7290;DHT22;63176;52.678;13.250;2023-05-07T06:34:12;10.90;53.20
7290;DHT22;63176;52.678;13.250;2023-05-07T06:36:41;10.90;52.80
7290;DHT22;63176;52.678;13.250;2023-05-07T06:39:06;11.00;54.70
7290;DHT22;63176;52.678;13.250;2023-05-07T06:41:32;11.10;54.40
7290;DHT22;63176;52.678;13.250;2023-05-07T06:43:58;11.20;55.50
7290;DHT22;63176;52.678;13.250;2023-05-07T06:46:23;11.20;55.60
7290;DHT22;63176;52.678;13.250;2023-05-07T06:48:49;11.30;53.80
7290;DHT22;63176;52.678;13.250;2023-05-07T06:51:18;11.30;51.70
7290;DHT22;63176;52.678;13.250;2023-05-07T06:53:43;11.40;53.20
7290;DHT22;63176;52.678;13.250;2023-05-07T06:56:09;11.40;53.70
7290;DHT22;63176;52.678;13.250;2023-05-07T06:58:35;11.40;53.70
7290;DHT22;63176;52.678;13.250;2023-05-07T07:01:00;11.50;54.30
7290;DHT22;63176;52.678;13.250;2023-05-07T07:03:26;11.60;53.00
7290;DHT22;63176;52.678;13.250;2023-05-07T07:05:55;11.70;54.40
7290;DHT22;63176;52.678;13.250;2023-05-07T07:08:22;11.70;53.20
7290;DHT22;63176;52.678;13.250;2023-05-07T08:06:10;12.70;37.40
7290;DHT22;63176;52.678;13.250;2023-05-07T08:08:36;12.70;47.00
7290;DHT22;63176;52.678;13.250;2023-05-07T08:11:01;12.70;47.60
7290;DHT22;63176;52.678;13.250;2023-05-07T08:13:27;12.80;49.70
7290;DHT22;63176;52.678;13.250;2023-05-07T08:15:53;12.90;47.90
7290;DHT22;63176;52.678;13.250;2023-05-07T08:18:19;12.90;46.20
7290;DHT22;63176;52.678;13.250;2023-05-07T08:20:44;13.00;48.60
7290;DHT22;63176;52.678;13.250;2023-05-07T08:23:10;13.00;43.70
7290;DHT22;63176;52.678;13.250;2023-05-07T08:25:36;13.10;45.00
7290;DHT22;63176;52.678;13.250;2023-05-07T08:28:02;13.20;43.90
7290;DHT22;63176;52.678;13.250;2023-05-07T08:30:28;13.30;45.30
7290;DHT22;63176;52.678;13.250;2023-05-07T08:32:54;13.40;46.50
7290;DHT22;63176;52.678;13.250;2023-05-07T08:35:20;13.50;43.20
7290;DHT22;63176;52.678;13.250;2023-05-07T08:37:48;13.60;44.30
7290;DHT22;63176;52.678;13.250;2023-05-07T08:40:14;13.60;42.20
7290;DHT22;63176;52.678;13.250;2023-05-07T08:42:41;13.70;43.90
7290;DHT22;63176;52.678;13.250;2023-05-07T08:45:10;13.80;45.60
7290;DHT22;63176;52.678;13.250;2023-05-07T08:47:43;13.80;43.80
7290;DHT22;63176;52.678;13.250;2023-05-07T08:50:12;13.90;46.90
7290;DHT22;63176;52.678;13.250;2023-05-07T08:52:42;14.00;43.40
7290;DHT22;63176;52.678;13.250;2023-05-07T08:55:08;14.00;44.70
7290;DHT22;63176;52.678;13.250;2023-05-07T08:57:35;14.10;42.50
7290;DHT22;63176;52.678;13.250;2023-05-07T09:00:02;14.10;46.00
7290;DHT22;63176;52.678;13.250;2023-05-07T09:02:29;14.10;41.50
7290;DHT22;63176;52.678;13.250;2023-05-07T09:04:54;14.20;42.40
7290;DHT22;63176;52.678;13.250;2023-05-07T09:07:21;14.20;43.40
7290;DHT22;63176;52.678;13.250;2023-05-07T09:09:46;14.40;45.40
7290;DHT22;63176;52.678;13.250;2023-05-07T09:12:12;14.50;46.90
7290;DHT22;63176;52.678;13.250;2023-05-07T09:14:38;14.50;39.70
7290;DHT22;63176;52.678;13.250;2023-05-07T09:17:04;14.60;44.10
7290;DHT22;63176;52.678;13.250;2023-05-07T09:19:30;14.80;46.10
7290;DHT22;63176;52.678;13.250;2023-05-07T09:22:01;15.00;46.50
7290;DHT22;63176;52.678;13.250;2023-05-07T09:24:28;15.10;42.80
7290;DHT22;63176;52.678;13.250;2023-05-07T09:26:57;15.20;46.20
7290;DHT22;63176;52.678;13.250;2023-05-07T09:29:23;15.40;48.20
7290;DHT22;63176;52.678;13.250;2023-05-07T09:31:49;15.40;44.40
7290;DHT22;63176;52.678;13.250;2023-05-07T09:34:14;15.30;43.10
7290;DHT22;63176;52.678;13.250;2023-05-07T09:36:41;15.30;42.50
7290;DHT22;63176;52.678;13.250;2023-05-07T09:39:07;15.00;38.60
7290;DHT22;63176;52.678;13.250;2023-05-07T09:41:33;14.90;37.70
7290;DHT22;63176;52.678;13.250;2023-05-07T09:44:08;14.80;38.10
7290;DHT22;63176;52.678;13.250;2023-05-07T09:46:36;14.80;39.50
7290;DHT22;63176;52.678;13.250;2023-05-07T09:49:06;14.80;39.10
7290;DHT22;63176;52.678;13.250;2023-05-07T09:51:41;14.80;39.50
7290;DHT22;63176;52.678;13.250;2023-05-07T09:54:09;14.80;37.90
7290;DHT22;63176;52.678;13.250;2023-05-07T09:56:35;15.00;39.00
7290;DHT22;63176;52.678;13.250;2023-05-07T09:59:03;15.20;39.10
7290;DHT22;63176;52.678;13.250;2023-05-07T10:01:31;15.30;40.80
7290;DHT22;63176;52.678;13.250;2023-05-07T10:03:57;15.40;41.00
7290;DHT22;63176;52.678;13.250;2023-05-07T10:06:25;15.50;39.20
7290;DHT22;63176;52.678;13.250;2023-05-07T10:08:52;15.40;36.70
7290;DHT22;63176;52.678;13.250;2023-05-07T10:11:18;15.30;36.50
7290;DHT22;63176;52.678;13.250;2023-05-07T10:13:46;15.10;34.80
7290;DHT22;63176;52.678;13.250;2023-05-07T10:16:13;15.10;35.10
7290;DHT22;63176;52.678;13.250;2023-05-07T10:18:40;15.10;35.80
7290;DHT22;63176;52.678;13.250;2023-05-07T10:21:18;15.30;38.30
7290;DHT22;63176;52.678;13.250;2023-05-07T10:24:15;15.70;41.00
7290;DHT22;63176;52.678;13.250;2023-05-07T10:26:42;15.90;38.80
7290;DHT22;63176;52.678;13.250;2023-05-07T10:29:14;16.20;38.70
7290;DHT22;63176;52.678;13.250;2023-05-07T10:31:53;16.20;37.70
7290;DHT22;63176;52.678;13.250;2023-05-07T10:34:24;16.20;34.90
7290;DHT22;63176;52.678;13.250;2023-05-07T10:36:51;15.90;33.30
7290;DHT22;63176;52.678;13.250;2023-05-07T10:39:19;15.80;30.30
7290;DHT22;63176;52.678;13.250;2023-05-07T10:41:45;15.70;31.50
7290;DHT22;63176;52.678;13.250;2023-05-07T10:44:11;15.50;29.00
7290;DHT22;63176;52.678;13.250;2023-05-07T10:46:37;15.40;30.00
7290;DHT22;63176;52.678;13.250;2023-05-07T10:51:30;15.50;31.60
7290;DHT22;63176;52.678;13.250;2023-05-07T10:56:42;16.00;32.50
7290;DHT22;63176;52.678;13.250;2023-05-07T11:04:20;16.70;34.40
7290;DHT22;63176;52.678;13.250;2023-05-07T11:07:21;16.80;34.00
7290;DHT22;63176;52.678;13.250;2023-05-07T11:09:55;16.80;34.30
7290;DHT22;63176;52.678;13.250;2023-05-07T11:17:32;16.50;27.80
7290;DHT22;63176;52.678;13.250;2023-05-07T11:20:03;16.30;26.90
7290;DHT22;63176;52.678;13.250;2023-05-07T11:25:03;16.10;25.60
7290;DHT22;63176;52.678;13.250;2023-05-07T11:27:29;16.10;24.90
7290;DHT22;63176;52.678;13.250;2023-05-07T11:29:55;16.20;26.30
7290;DHT22;63176;52.678;13.250;2023-05-07T11:32:32;16.40;25.90
7290;DHT22;63176;52.678;13.250;2023-05-07T11:34:59;16.60;26.40
7290;DHT22;63176;52.678;13.250;2023-05-07T11:37:26;16.90;28.30
7290;DHT22;63176;52.678;13.250;2023-05-07T11:40:08;17.30;28.20
7290;DHT22;63176;52.678;13.250;2023-05-07T11:42:37;17.60;33.40
7290;DHT22;63176;52.678;13.250;2023-05-07T11:45:03;17.90;30.90
7290;DHT22;63176;52.678;13.250;2023-05-07T11:47:33;18.20;31.90
7290;DHT22;63176;52.678;13.250;2023-05-07T11:50:06;18.50;32.90
7290;DHT22;63176;52.678;13.250;2023-05-07T11:52:33;18.60;33.90
7290;DHT22;63176;52.678;13.250;2023-05-07T11:55:00;18.70;32.60
7290;DHT22;63176;52.678;13.250;2023-05-07T11:57:27;18.60;30.30
7290;DHT22;63176;52.678;13.250;2023-05-07T11:59:55;18.40;27.00
7290;DHT22;63176;52.678;13.250;2023-05-07T12:02:21;18.10;25.90
7290;DHT22;63176;52.678;13.250;2023-05-07T12:04:47;17.90;25.20
7290;DHT22;63176;52.678;13.250;2023-05-07T12:07:14;17.80;24.50
7290;DHT22;63176;52.678;13.250;2023-05-07T12:09:44;17.70;23.70
7290;DHT22;63176;52.678;13.250;2023-05-07T12:12:11;17.50;21.30
7290;DHT22;63176;52.678;13.250;2023-05-07T12:14:41;17.50;21.40
7290;DHT22;63176;52.678;13.250;2023-05-07T12:17:11;17.60;23.80
7290;DHT22;63176;52.678;13.250;2023-05-07T12:19:39;17.70;23.20
7290;DHT22;63176;52.678;13.250;2023-05-07T12:22:07;17.70;21.50
7290;DHT22;63176;52.678;13.250;2023-05-07T12:24:47;17.70;22.70
7290;DHT22;63176;52.678;13.250;2023-05-07T12:27:16;17.60;19.60
7290;DHT22;63176;52.678;13.250;2023-05-07T12:29:49;17.40;19.10
7290;DHT22;63176;52.678;13.250;2023-05-07T12:32:16;17.40;19.20
7290;DHT22;63176;52.678;13.250;2023-05-07T12:34:46;17.40;19.20
7290;DHT22;63176;52.678;13.250;2023-05-07T12:37:12;17.50;18.50
7290;DHT22;63176;52.678;13.250;2023-05-07T12:39:38;17.60;18.40
7290;DHT22;63176;52.678;13.250;2023-05-07T12:42:20;17.80;20.80
7290;DHT22;63176;52.678;13.250;2023-05-07T12:44:51;18.10;21.20
7290;DHT22;63176;52.678;13.250;2023-05-07T12:47:17;18.50;24.10
7290;DHT22;63176;52.678;13.250;2023-05-07T12:49:43;18.90;24.30
7290;DHT22;63176;52.678;13.250;2023-05-07T12:52:11;19.20;25.50
7290;DHT22;63176;52.678;13.250;2023-05-07T12:54:38;19.50;26.20
7290;DHT22;63176;52.678;13.250;2023-05-07T12:57:09;19.70;26.90
7290;DHT22;63176;52.678;13.250;2023-05-07T12:59:41;19.90;26.50
7290;DHT22;63176;52.678;13.250;2023-05-07T13:02:08;20.00;25.90
7290;DHT22;63176;52.678;13.250;2023-05-07T13:04:34;20.20;26.10
7290;DHT22;63176;52.678;13.250;2023-05-07T13:07:01;20.30;24.80
7290;DHT22;63176;52.678;13.250;2023-05-07T13:09:26;20.30;23.80
7290;DHT22;63176;52.678;13.250;2023-05-07T13:11:54;20.50;24.90
7290;DHT22;63176;52.678;13.250;2023-05-07T13:14:20;20.60;25.00
7290;DHT22;63176;52.678;13.250;2023-05-07T13:16:47;20.80;25.90
7290;DHT22;63176;52.678;13.250;2023-05-07T13:19:12;20.80;24.30
7290;DHT22;63176;52.678;13.250;2023-05-07T13:21:38;21.00;25.50
7290;DHT22;63176;52.678;13.250;2023-05-07T13:24:04;21.10;26.10
7290;DHT22;63176;52.678;13.250;2023-05-07T13:26:30;21.00;24.90
7290;DHT22;63176;52.678;13.250;2023-05-07T13:28:56;21.00;24.50
7290;DHT22;63176;52.678;13.250;2023-05-07T13:31:22;21.00;23.40
7290;DHT22;63176;52.678;13.250;2023-05-07T13:33:48;20.90;22.70
7290;DHT22;63176;52.678;13.250;2023-05-07T13:36:14;21.00;22.30
7290;DHT22;63176;52.678;13.250;2023-05-07T13:38:40;20.70;19.30
7290;DHT22;63176;52.678;13.250;2023-05-07T13:41:06;20.40;18.70
7290;DHT22;63176;52.678;13.250;2023-05-07T13:43:31;20.30;16.80
7290;DHT22;63176;52.678;13.250;2023-05-07T13:45:59;20.00;11.80
7290;DHT22;63176;52.678;13.250;2023-05-07T13:48:25;20.00;12.20
7290;DHT22;63176;52.678;13.250;2023-05-07T13:50:50;20.00;12.50
7290;DHT22;63176;52.678;13.250;2023-05-07T13:53:17;20.10;12.70
7290;DHT22;63176;52.678;13.250;2023-05-07T13:55:44;20.10;13.50
7290;DHT22;63176;52.678;13.250;2023-05-07T13:58:10;20.00;12.40
7290;DHT22;63176;52.678;13.250;2023-05-07T14:00:36;20.30;12.50
7290;DHT22;63176;52.678;13.250;2023-05-07T14:03:04;20.60;16.40
7290;DHT22;63176;52.678;13.250;2023-05-07T14:05:30;20.90;16.30
7290;DHT22;63176;52.678;13.250;2023-05-07T14:07:57;21.10;17.20
7290;DHT22;63176;52.678;13.250;2023-05-07T14:10:23;20.90;15.90
7290;DHT22;63176;52.678;13.250;2023-05-07T14:12:49;20.90;14.10
7290;DHT22;63176;52.678;13.250;2023-05-07T14:15:15;21.10;14.10
7290;DHT22;63176;52.678;13.250;2023-05-07T14:17:42;21.30;14.80
7290;DHT22;63176;52.678;13.250;2023-05-07T14:20:08;21.40;13.50
7290;DHT22;63176;52.678;13.250;2023-05-07T14:22:34;21.40;14.00
7290;DHT22;63176;52.678;13.250;2023-05-07T14:25:00;21.40;11.50
7290;DHT22;63176;52.678;13.250;2023-05-07T14:27:25;21.40;11.80
7290;DHT22;63176;52.678;13.250;2023-05-07T14:29:51;21.20;10.50
7290;DHT22;63176;52.678;13.250;2023-05-07T14:32:17;20.60;5.80
7290;DHT22;63176;52.678;13.250;2023-05-07T14:34:44;20.10;4.50
7290;DHT22;63176;52.678;13.250;2023-05-07T14:37:10;20.20;4.70
7290;DHT22;63176;52.678;13.250;2023-05-07T14:39:36;20.00;2.30
7290;DHT22;63176;52.678;13.250;2023-05-07T14:42:01;20.40;5.70
7290;DHT22;63176;52.678;13.250;2023-05-07T14:44:27;20.90;6.60
7290;DHT22;63176;52.678;13.250;2023-05-07T14:46:53;21.40;9.40
7290;DHT22;63176;52.678;13.250;2023-05-07T14:49:18;21.90;11.40
7290;DHT22;63176;52.678;13.250;2023-05-07T14:51:45;22.30;13.20
7290;DHT22;63176;52.678;13.250;2023-05-07T14:54:11;23.10;15.50
7290;DHT22;63176;52.678;13.250;2023-05-07T14:56:38;23.50;17.20
7290;DHT22;63176;52.678;13.250;2023-05-07T14:59:04;23.90;19.20
7290;DHT22;63176;52.678;13.250;2023-05-07T15:01:29;24.10;19.70
7290;DHT22;63176;52.678;13.250;2023-05-07T15:03:55;23.40;16.20
7290;DHT22;63176;52.678;13.250;2023-05-07T15:06:21;23.50;15.30
7290;DHT22;63176;52.678;13.250;2023-05-07T15:08:47;23.50;14.20
7290;DHT22;63176;52.678;13.250;2023-05-07T15:11:14;22.70;8.10
7290;DHT22;63176;52.678;13.250;2023-05-07T15:13:42;22.70;8.30
7290;DHT22;63176;52.678;13.250;2023-05-07T15:16:07;22.50;7.10
7290;DHT22;63176;52.678;13.250;2023-05-07T15:18:33;22.10;3.10
7290;DHT22;63176;52.678;13.250;2023-05-07T15:20:59;21.70;3.20
7290;DHT22;63176;52.678;13.250;2023-05-07T15:23:25;21.30;1.00
7290;DHT22;63176;52.678;13.250;2023-05-07T15:25:51;21.40;1.00
7290;DHT22;63176;52.678;13.250;2023-05-07T15:28:17;22.00;2.10
7290;DHT22;63176;52.678;13.250;2023-05-07T15:30:43;22.20;1.50
7290;DHT22;63176;52.678;13.250;2023-05-07T15:33:09;22.40;4.30
7290;DHT22;63176;52.678;13.250;2023-05-07T15:35:34;22.40;2.90
7290;DHT22;63176;52.678;13.250;2023-05-07T15:38:00;22.10;1.10
7290;DHT22;63176;52.678;13.250;2023-05-07T15:40:29;22.00;1.00
7290;DHT22;63176;52.678;13.250;2023-05-07T15:42:56;22.30;2.80
7290;DHT22;63176;52.678;13.250;2023-05-07T15:45:23;22.50;3.40
7290;DHT22;63176;52.678;13.250;2023-05-07T15:47:49;22.30;2.90
7290;DHT22;63176;52.678;13.250;2023-05-07T15:50:14;22.00;1.00
7290;DHT22;63176;52.678;13.250;2023-05-07T15:52:40;21.50;1.00
7290;DHT22;63176;52.678;13.250;2023-05-07T15:55:07;20.90;1.00
7290;DHT22;63176;52.678;13.250;2023-05-07T15:57:34;20.60;1.00
7290;DHT22;63176;52.678;13.250;2023-05-07T16:00:00;20.30;1.00
7290;DHT22;63176;52.678;13.250;2023-05-07T16:02:26;20.00;1.00
7290;DHT22;63176;52.678;13.250;2023-05-07T16:04:51;19.90;1.00
7290;DHT22;63176;52.678;13.250;2023-05-07T16:07:17;19.60;1.00
7290;DHT22;63176;52.678;13.250;2023-05-07T16:09:44;19.40;1.00
7290;DHT22;63176;52.678;13.250;2023-05-07T16:12:10;19.20;1.00
7290;DHT22;63176;52.678;13.250;2023-05-07T16:14:36;19.10;1.00
7290;DHT22;63176;52.678;13.250;2023-05-07T16:17:02;19.00;1.00
7290;DHT22;63176;52.678;13.250;2023-05-07T16:19:28;19.10;1.00
7290;DHT22;63176;52.678;13.250;2023-05-07T16:21:53;19.10;1.00
7290;DHT22;63176;52.678;13.250;2023-05-07T16:24:19;19.20;1.00
7290;DHT22;63176;52.678;13.250;2023-05-07T16:26:45;19.10;1.00
7290;DHT22;63176;52.678;13.250;2023-05-07T16:29:11;18.90;1.00
7290;DHT22;63176;52.678;13.250;2023-05-07T16:31:40;18.90;1.00
7290;DHT22;63176;52.678;13.250;2023-05-07T16:34:06;18.50;1.00
7290;DHT22;63176;52.678;13.250;2023-05-07T16:36:31;18.30;1.00
7290;DHT22;63176;52.678;13.250;2023-05-07T16:38:57;18.20;1.00
7290;DHT22;63176;52.678;13.250;2023-05-07T16:41:23;17.90;1.00
7290;DHT22;63176;52.678;13.250;2023-05-07T16:43:49;17.70;1.00
7290;DHT22;63176;52.678;13.250;2023-05-07T16:46:14;17.60;1.00
7290;DHT22;63176;52.678;13.250;2023-05-07T16:48:41;17.50;1.00